Blairsville, GA

04:50 AM EDT ar Medi 03, 2015 (GMT -0400)
Old England | | Change Station
CLOSE
Current Station
Personal Weather Stations
Location: Blairsville, GA
Elevation: 1883 ft
Nearby Weather Stations

Elev 1883 ft 34.90 °N, 84.03 °W | Updated 1 second ago

Haze
Tawch
70.1 °F
Feels Like 70.1 °F
N
0.0
Gwynt Cyfnewidiol Gwynt from GDw
Gusts 0.0 mph

Heddiw
High -- | Low -- °F
--% Chance of Precip.
Yesterday
High -- | Low -- °F
Precip. -- mod
7:10 AM 8:00 PM
Waning Gibbous, 72% visible
Gwasgedd 30.05 mod
Gwelededd 0.5 Milltiroedd
Clouds
Gwlithbwynt 69 °F
Lleithder 96%
Rainfall 0.00 mod
Snow Depth Not available.
UV Not available.
Pollen 9.60 out of 12
Air Quality Not available.
Flu Activity Not available.
METAR KDZJ 030835Z AUTO 00000KT 1/2SM HZ 20/16 A3005 RMK AO2 T02020160
Gwasgedd 30.05 mod
Gwelededd 0.5 Milltiroedd
Clouds
Gwlithbwynt 69 °F
Lleithder 96%
Rainfall 0.00 mod
Snow Depth Not available.
UV Not available.
Pollen 9.60 out of 12
Air Quality Not available.
Flu Activity Not available.
METAR KDZJ 030835Z AUTO 00000KT 1/2SM HZ 20/16 A3005 RMK AO2 T02020160

10-Day Weather Forecast

×

Almanac

Astronomy

Sep. 03, 2015 Rise Set
Actual Time
Civil Twilight
Nautical Twilight
Astronomical Twilight
Moon
Length Of Visible Light
Length of Day
Tomorrow will be .
, % of the Moon is Illuminated

Today's Extremes

State Highs State Lows

Community

WunderPhotos

Upload Photos

1,851,919 photos uploaded!

WunderBlogs® & News

Nearby

Air Quality

  Air Quality AQ Index Pollutant
Not available.

Snow Depth

Station Depth Elevation

Earthquake Activity

City Distance Mag. Time & Date
Minimum magnitude displayed is 2.5.

Coastal Water Temperatures

Lle Tymheredd

Stations

Nearby Weather Stations

Station Location Temp Oerfel Gwynt Gwlithbwynt Lleithder Gwynt Precip. Elev Diweddarwyd Type